Longview, Washington
Current Conditions -  °F | °C
As of 10:35 AM on Saturday 20 Dec 2014 (Local Time) from KKLS Reporting Station
Overcast Overcast  
Wind Chill: 50°   Ceiling: 6000
Heat Index: 50°   Visibility: 10mi
Dew Point: 45°   Wind: 18mph
Humidity: 82%   Direction: 140°SE
Pressure: 29.69"   Gusts: 29mph
Location:  46.15°N, 122.95°W
Report Text: KKLS 201835Z 14016G25KT 10SM FEW018 BKN060 OVC070 10/07 A2969 RMK AO1 P0007
Loading
Personal Weather Stations






























Interactive Weather Map New forecast layout! Learn more

10-Day Weather Forecast

Advertisements
Track Severe Weather on mobile